Time;durP1;ratioP1;P1;durP2;ratioP2;P2;SDS_P1;SDS_P2;PMS_P1;PMS_P2;Temp;Humidity;BMP_temperature;BMP_pressure;BME280_temperature;BME280_humidity;BME280_pressure;Samples;Min_cycle;Max_cycle;Signal;HPM_P1;HPM_P2
2022/01/12 00:02:12;;;;;;;19.27;13.30;;;;;;;;;;4931814;28;20231;-68
2022/01/12 00:04:39;;;;;;;19.73;13.53;;;;;;;;;;4938653;28;20772;-68
2022/01/12 00:07:05;;;;;;;18.20;12.60;;;;;;;;;;4929371;28;20302;-67
2022/01/12 00:09:31;;;;;;;18.90;13.13;;;;;;;;;;4932250;28;20752;-67
2022/01/12 00:11:59;;;;;;;18.87;12.97;;;;;;;;;;4930627;28;21241;-68
2022/01/12 00:14:27;;;;;;;19.33;13.27;;;;;;;;;;4926631;28;20258;-68
2022/01/12 00:16:58;;;;;;;18.07;13.13;;;;;;;;;;4925123;28;20290;-68
2022/01/12 00:19:25;;;;;;;20.30;13.20;;;;;;;;;;4939800;28;20240;-69
2022/01/12 00:21:51;;;;;;;19.70;13.43;;;;;;;;;;4918442;28;20571;-68
2022/01/12 00:24:17;;;;;;;15.40;11.53;;;;;;;;;;4934585;28;20243;-68
2022/01/12 00:34:58;;;;;;;17.73;12.10;;;;;;;;;;4900380;28;20319;-68
2022/01/12 00:37:24;;;;;;;19.33;12.53;;;;;;;;;;4883618;28;20806;-68
2022/01/12 00:39:50;;;;;;;16.47;12.13;;;;;;;;;;4899726;28;20393;-68
2022/01/12 00:42:16;;;;;;;19.70;12.03;;;;;;;;;;4883365;29;24185;-69
2022/01/12 00:44:45;;;;;;;17.77;11.97;;;;;;;;;;4908761;28;20230;-69
2022/01/12 00:47:11;;;;;;;16.13;12.10;;;;;;;;;;4881700;29;20525;-68
2022/01/12 00:49:37;;;;;;;17.23;11.57;;;;;;;;;;4873753;28;20325;-69
2022/01/12 00:52:04;;;;;;;17.57;12.27;;;;;;;;;;4892087;28;20247;-69
2022/01/12 00:54:30;;;;;;;15.43;11.20;;;;;;;;;;4881566;28;20389;-68
2022/01/12 00:56:56;;;;;;;17.83;10.77;;;;;;;;;;4918295;28;20599;-67
2022/01/12 00:59:22;;;;;;;18.27;12.20;;;;;;;;;;4917003;28;20256;-68
2022/01/12 01:01:48;;;;;;;16.40;11.50;;;;;;;;;;4911449;28;20855;-67
2022/01/12 01:04:14;;;;;;;15.43;10.53;;;;;;;;;;4911140;28;20859;-68
2022/01/12 01:06:40;;;;;;;16.03;11.50;;;;;;;;;;4890040;28;20513;-69
2022/01/12 01:09:06;;;;;;;14.70;11.13;;;;;;;;;;4897574;28;20301;-68
2022/01/12 01:11:32;;;;;;;19.13;11.73;;;;;;;;;;4907279;28;20848;-67
2022/01/12 01:14:01;;;;;;;15.57;11.80;;;;;;;;;;4920735;28;20618;-67
2022/01/12 01:16:48;;;;;;;20.07;12.27;;;;;;;;;;4906492;28;20382;-68
2022/01/12 01:27:29;;;;;;;19.23;12.87;;;;;;;;;;4921811;28;20644;-68
2022/01/12 01:29:55;;;;;;;17.37;12.20;;;;;;;;;;4921016;28;20326;-68
2022/01/12 01:32:22;;;;;;;18.57;11.90;;;;;;;;;;4923678;28;20234;-68
2022/01/12 01:34:49;;;;;;;16.60;11.53;;;;;;;;;;4900424;28;20286;-69
2022/01/12 01:37:15;;;;;;;18.10;11.63;;;;;;;;;;4924058;28;20331;-68
2022/01/12 01:39:41;;;;;;;18.33;12.27;;;;;;;;;;4887942;28;20229;-68
2022/01/12 01:42:17;;;;;;;16.10;11.67;;;;;;;;;;4926267;28;20231;-69
2022/01/12 01:55:26;;;;;;;19.30;12.00;;;;;;;;;;4917072;28;20243;-67
2022/01/12 01:57:52;;;;;;;16.97;11.70;;;;;;;;;;4927309;28;20625;-69
2022/01/12 02:00:19;;;;;;;17.40;12.13;;;;;;;;;;4917554;28;20238;-69
2022/01/12 02:02:46;;;;;;;18.20;12.40;;;;;;;;;;4904877;28;20374;-67
2022/01/12 02:05:12;;;;;;;15.40;11.17;;;;;;;;;;4923508;28;20774;-68
2022/01/12 02:07:38;;;;;;;17.27;12.20;;;;;;;;;;4920341;28;20754;-67
2022/01/12 02:10:04;;;;;;;15.13;11.30;;;;;;;;;;4907421;28;20240;-69
2022/01/12 02:12:30;;;;;;;17.13;12.50;;;;;;;;;;4906936;28;20237;-68
2022/01/12 02:14:57;;;;;;;15.43;11.20;;;;;;;;;;4909411;28;20275;-67
2022/01/12 02:17:28;;;;;;;17.17;11.50;;;;;;;;;;4925763;28;20238;-69
2022/01/12 02:20:23;;;;;;;17.13;11.40;;;;;;;;;;4921006;28;20934;-68
2022/01/12 02:36:30;;;;;;;16.27;11.13;;;;;;;;;;4900696;28;20549;-67
2022/01/12 02:41:41;;;;;;;15.23;11.20;;;;;;;;;;4899013;28;20269;-68
2022/01/12 02:54:48;;;;;;;16.00;10.97;;;;;;;;;;4900888;28;20265;-68
2022/01/12 02:57:14;;;;;;;15.93;11.30;;;;;;;;;;4915759;28;20366;-68
2022/01/12 02:59:58;;;;;;;14.90;10.33;;;;;;;;;;4896899;28;20239;-67
2022/01/12 03:02:32;;;;;;;15.80;10.90;;;;;;;;;;4912080;28;20799;-69
2022/01/12 03:07:43;;;;;;;15.70;11.07;;;;;;;;;;4898206;28;20880;-68
2022/01/12 03:10:10;;;;;;;15.47;10.83;;;;;;;;;;4886376;28;20278;-67
2022/01/12 03:12:36;;;;;;;15.27;10.83;;;;;;;;;;4914608;28;20442;-68
2022/01/12 03:15:02;;;;;;;15.97;10.93;;;;;;;;;;4895528;28;20227;-68
2022/01/12 03:17:28;;;;;;;15.30;10.00;;;;;;;;;;4890480;28;20290;-68
2022/01/12 03:19:54;;;;;;;17.47;10.70;;;;;;;;;;4916869;28;20239;-68
2022/01/12 03:22:20;;;;;;;14.90;10.13;;;;;;;;;;4922392;28;20272;-68
2022/01/12 03:24:46;;;;;;;13.17;10.07;;;;;;;;;;4922304;28;20562;-68
2022/01/12 03:27:14;;;;;;;14.43;9.77;;;;;;;;;;4901529;28;20347;-68
2022/01/12 03:29:44;;;;;;;14.57;10.83;;;;;;;;;;4916454;28;20273;-68
2022/01/12 03:32:14;;;;;;;15.80;10.13;;;;;;;;;;4936783;28;20237;-68
2022/01/12 03:34:42;;;;;;;14.33;10.23;;;;;;;;;;4921478;28;20234;-68
2022/01/12 03:39:42;;;;;;;14.67;9.90;;;;;;;;;;4922465;28;20228;-68
2022/01/12 03:42:08;;;;;;;13.67;10.10;;;;;;;;;;4929846;28;20241;-69
2022/01/12 03:44:34;;;;;;;13.93;9.80;;;;;;;;;;4938067;28;20257;-68
2022/01/12 03:47:00;;;;;;;13.93;9.40;;;;;;;;;;4932517;28;20231;-68
2022/01/12 03:49:27;;;;;;;14.90;9.80;;;;;;;;;;4902628;28;20267;-68
2022/01/12 03:51:53;;;;;;;15.03;9.57;;;;;;;;;;4941608;28;20655;-68
2022/01/12 03:54:19;;;;;;;17.17;10.47;;;;;;;;;;4922260;28;20715;-69
2022/01/12 03:56:45;;;;;;;12.37;9.77;;;;;;;;;;4915519;28;20244;-68
2022/01/12 03:59:11;;;;;;;15.13;9.87;;;;;;;;;;4933492;28;21488;-69
2022/01/12 04:01:37;;;;;;;12.40;9.57;;;;;;;;;;4936719;28;20235;-69
2022/01/12 04:04:07;;;;;;;16.10;9.43;;;;;;;;;;4921736;28;20553;-69
2022/01/12 04:09:18;;;;;;;13.13;9.60;;;;;;;;;;4934148;28;20270;-68
2022/01/12 04:11:44;;;;;;;13.63;9.37;;;;;;;;;;4935501;28;20569;-68
2022/01/12 04:14:10;;;;;;;13.60;9.70;;;;;;;;;;4925574;28;20250;-69
2022/01/12 04:16:36;;;;;;;13.77;9.80;;;;;;;;;;4940258;28;20586;-68
2022/01/12 04:19:02;;;;;;;10.57;8.53;;;;;;;;;;4917466;28;20231;-68
2022/01/12 04:21:30;;;;;;;13.93;9.33;;;;;;;;;;4919415;28;20254;-68
2022/01/12 04:23:56;;;;;;;12.10;9.60;;;;;;;;;;4930463;28;20227;-68
2022/01/12 04:26:22;;;;;;;13.70;9.40;;;;;;;;;;4940577;28;20223;-69
2022/01/12 04:28:48;;;;;;;13.63;9.83;;;;;;;;;;4904447;28;20319;-68
2022/01/12 04:31:14;;;;;;;15.50;9.83;;;;;;;;;;4918375;28;20623;-68
2022/01/12 04:33:40;;;;;;;14.47;9.70;;;;;;;;;;4936849;28;20231;-68
2022/01/12 04:36:06;;;;;;;15.47;10.23;;;;;;;;;;4926981;28;20245;-68
2022/01/12 04:38:34;;;;;;;13.17;9.30;;;;;;;;;;4924070;28;20325;-68
2022/01/12 04:41:01;;;;;;;13.50;10.03;;;;;;;;;;4929165;28;20242;-68
2022/01/12 04:43:27;;;;;;;12.60;9.53;;;;;;;;;;4942584;28;20654;-68
2022/01/12 04:48:33;;;;;;;14.77;10.13;;;;;;;;;;4920936;28;20630;-69
2022/01/12 04:50:59;;;;;;;12.87;9.23;;;;;;;;;;4913953;28;20340;-70
2022/01/12 04:53:25;;;;;;;14.07;9.60;;;;;;;;;;4934038;28;20657;-68
2022/01/12 04:55:51;;;;;;;13.23;9.67;;;;;;;;;;4935096;28;20819;-68
2022/01/12 04:58:17;;;;;;;14.00;10.43;;;;;;;;;;4911612;28;20670;-68
2022/01/12 05:00:44;;;;;;;14.00;9.60;;;;;;;;;;4908171;28;20238;-68
2022/01/12 05:13:56;;;;;;;14.20;10.13;;;;;;;;;;4919207;28;20281;-68
2022/01/12 05:16:22;;;;;;;14.40;9.83;;;;;;;;;;4927484;28;20348;-68
2022/01/12 05:18:48;;;;;;;16.43;10.73;;;;;;;;;;4919901;28;20363;-68
2022/01/12 05:21:15;;;;;;;17.00;10.80;;;;;;;;;;4906266;28;20242;-68
2022/01/12 05:23:40;;;;;;;17.93;10.53;;;;;;;;;;4923990;28;20620;-68
2022/01/12 05:26:06;;;;;;;15.30;10.60;;;;;;;;;;4902030;28;20326;-68
2022/01/12 05:28:32;;;;;;;14.47;10.50;;;;;;;;;;4928064;28;20335;-69
2022/01/12 05:30:58;;;;;;;15.97;9.93;;;;;;;;;;4923582;28;20238;-68
2022/01/12 05:33:25;;;;;;;15.30;10.50;;;;;;;;;;4919590;28;20231;-68
2022/01/12 05:35:51;;;;;;;13.73;10.23;;;;;;;;;;4931846;28;20289;-68
2022/01/12 05:38:18;;;;;;;14.10;10.23;;;;;;;;;;4907522;28;20230;-69
2022/01/12 05:40:46;;;;;;;13.97;9.90;;;;;;;;;;4923386;28;20243;-69
2022/01/12 05:43:20;;;;;;;14.97;10.30;;;;;;;;;;4917140;28;20813;-68
2022/01/12 05:45:46;;;;;;;14.20;10.40;;;;;;;;;;4922575;28;20361;-69
2022/01/12 05:50:39;;;;;;;14.40;9.93;;;;;;;;;;4928164;28;20326;-69
2022/01/12 05:53:05;;;;;;;14.90;10.63;;;;;;;;;;4906769;28;20281;-68
2022/01/12 05:55:30;;;;;;;14.97;10.07;;;;;;;;;;4918865;28;20811;-69
2022/01/12 05:57:57;;;;;;;16.27;10.60;;;;;;;;;;4917203;28;20242;-69
2022/01/12 06:00:23;;;;;;;13.33;10.67;;;;;;;;;;4907523;28;20232;-68
2022/01/12 06:02:49;;;;;;;16.33;10.60;;;;;;;;;;4919154;28;20233;-69
2022/01/12 06:05:18;;;;;;;16.33;10.57;;;;;;;;;;4914177;28;20724;-68
2022/01/12 06:07:44;;;;;;;13.50;10.00;;;;;;;;;;4903843;28;20277;-68
2022/01/12 06:10:10;;;;;;;16.13;11.07;;;;;;;;;;4900863;28;20814;-68
2022/01/12 06:12:36;;;;;;;15.57;10.57;;;;;;;;;;4904735;28;20241;-68
2022/01/12 06:15:02;;;;;;;16.03;10.60;;;;;;;;;;4879841;28;20338;-70
2022/01/12 06:17:28;;;;;;;14.37;9.80;;;;;;;;;;4911730;28;20250;-67
2022/01/12 06:19:54;;;;;;;12.90;8.63;;;;;;;;;;4934532;28;20242;-66
2022/01/12 06:22:20;;;;;;;14.87;10.23;;;;;;;;;;4914960;28;20235;-66
2022/01/12 06:24:46;;;;;;;13.90;10.57;;;;;;;;;;4932774;28;20342;-66
2022/01/12 06:27:15;;;;;;;13.87;9.47;;;;;;;;;;4923858;28;20230;-66
2022/01/12 06:30:01;;;;;;;12.67;9.23;;;;;;;;;;4933988;28;20736;-66
2022/01/12 06:32:27;;;;;;;14.20;10.40;;;;;;;;;;4928088;28;20334;-66
2022/01/12 06:34:53;;;;;;;16.13;11.13;;;;;;;;;;4907396;28;22837;-66
2022/01/12 06:37:19;;;;;;;15.60;10.20;;;;;;;;;;4927214;28;20235;-68
2022/01/12 06:39:45;;;;;;;15.53;10.47;;;;;;;;;;4918748;28;20231;-69
2022/01/12 06:42:11;;;;;;;13.63;9.77;;;;;;;;;;4914890;28;20242;-66
2022/01/12 06:44:37;;;;;;;14.57;9.70;;;;;;;;;;4943351;28;20600;-67
2022/01/12 06:47:04;;;;;;;14.77;9.93;;;;;;;;;;4930573;28;20227;-67
2022/01/12 06:49:30;;;;;;;13.57;9.93;;;;;;;;;;4933814;28;20269;-65
2022/01/12 06:51:56;;;;;;;15.57;10.33;;;;;;;;;;4933021;28;20231;-66
2022/01/12 06:54:22;;;;;;;14.90;10.10;;;;;;;;;;4933184;28;21072;-67
2022/01/12 06:56:48;;;;;;;15.87;10.70;;;;;;;;;;4927846;28;20262;-66
2022/01/12 06:59:14;;;;;;;16.40;10.33;;;;;;;;;;4938112;28;20239;-66
2022/01/12 07:01:40;;;;;;;14.13;9.97;;;;;;;;;;4945113;28;20226;-66
2022/01/12 07:04:06;;;;;;;11.57;9.17;;;;;;;;;;4924115;28;20240;-66
2022/01/12 07:06:31;;;;;;;14.60;10.10;;;;;;;;;;4943890;28;20230;-66
2022/01/12 07:08:57;;;;;;;14.13;10.20;;;;;;;;;;4927555;28;20235;-66
2022/01/12 07:11:23;;;;;;;14.00;9.73;;;;;;;;;;4948106;28;20230;-67
2022/01/12 07:13:49;;;;;;;13.50;9.70;;;;;;;;;;4922013;28;20270;-67
2022/01/12 07:16:15;;;;;;;13.17;9.83;;;;;;;;;;4947273;28;20226;-65
2022/01/12 07:18:41;;;;;;;13.20;9.00;;;;;;;;;;4943537;28;20305;-65
2022/01/12 07:21:07;;;;;;;14.80;10.17;;;;;;;;;;4938382;28;20243;-67
2022/01/12 07:23:33;;;;;;;13.63;10.17;;;;;;;;;;4946214;28;20241;-66
2022/01/12 07:25:59;;;;;;;12.63;9.77;;;;;;;;;;4930678;28;20239;-66
2022/01/12 07:28:25;;;;;;;13.90;9.57;;;;;;;;;;4928297;28;20609;-66
2022/01/12 07:30:51;;;;;;;13.73;10.03;;;;;;;;;;4945014;28;20682;-66
2022/01/12 07:33:17;;;;;;;13.60;10.03;;;;;;;;;;4942316;28;20646;-66
2022/01/12 07:35:43;;;;;;;15.50;10.00;;;;;;;;;;4937631;28;20254;-67
2022/01/12 07:38:09;;;;;;;16.97;10.03;;;;;;;;;;4939280;28;20219;-67
2022/01/12 07:40:35;;;;;;;13.70;9.47;;;;;;;;;;4920576;28;20609;-68
2022/01/12 07:43:04;;;;;;;15.90;10.77;;;;;;;;;;4923153;28;20227;-68
2022/01/12 07:45:30;;;;;;;13.97;9.97;;;;;;;;;;4942779;28;20309;-66
2022/01/12 07:47:56;;;;;;;14.77;10.53;;;;;;;;;;4934891;28;20333;-67
2022/01/12 07:50:22;;;;;;;14.47;10.70;;;;;;;;;;4928187;28;20242;-67
2022/01/12 07:52:53;;;;;;;15.87;10.83;;;;;;;;;;4939754;28;20238;-67
2022/01/12 07:55:19;;;;;;;16.47;11.13;;;;;;;;;;4946034;28;20281;-66
2022/01/12 07:57:45;;;;;;;14.53;10.70;;;;;;;;;;4935134;28;20243;-67
2022/01/12 08:00:11;;;;;;;14.77;10.77;;;;;;;;;;4927513;28;20238;-68
2022/01/12 08:02:37;;;;;;;16.57;10.90;;;;;;;;;;4943400;28;21019;-67
2022/01/12 08:05:03;;;;;;;14.80;10.63;;;;;;;;;;4939279;28;20484;-67
2022/01/12 08:07:35;;;;;;;17.70;11.07;;;;;;;;;;4943943;28;20245;-68
2022/01/12 08:10:01;;;;;;;14.23;10.43;;;;;;;;;;4922024;28;20238;-66
2022/01/12 08:12:27;;;;;;;13.63;11.27;;;;;;;;;;4922688;28;20265;-65
2022/01/12 08:14:52;;;;;;;15.90;10.77;;;;;;;;;;4943900;28;20548;-68
2022/01/12 08:17:18;;;;;;;14.90;11.00;;;;;;;;;;4928397;28;20602;-67
2022/01/12 08:19:44;;;;;;;14.73;10.50;;;;;;;;;;4945466;28;20586;-66
2022/01/12 08:22:11;;;;;;;13.77;10.37;;;;;;;;;;4942172;28;20635;-66
2022/01/12 08:24:37;;;;;;;14.40;11.17;;;;;;;;;;4942914;28;20233;-68
2022/01/12 08:27:03;;;;;;;16.60;10.77;;;;;;;;;;4944305;28;20239;-67
2022/01/12 08:29:29;;;;;;;17.67;11.47;;;;;;;;;;4922519;28;20773;-67
2022/01/12 08:31:55;;;;;;;15.90;11.57;;;;;;;;;;4939631;28;20239;-67
2022/01/12 08:34:21;;;;;;;13.77;11.17;;;;;;;;;;4945557;28;20466;-67
2022/01/12 08:36:47;;;;;;;15.40;11.13;;;;;;;;;;4943739;28;20772;-66
2022/01/12 08:39:13;;;;;;;16.43;11.47;;;;;;;;;;4945545;28;20461;-68
2022/01/12 08:41:39;;;;;;;15.90;10.87;;;;;;;;;;4924572;28;20369;-67
2022/01/12 08:44:06;;;;;;;14.33;10.73;;;;;;;;;;4935711;28;20245;-67
2022/01/12 08:46:32;;;;;;;15.73;10.77;;;;;;;;;;4935583;28;20555;-67
2022/01/12 08:48:58;;;;;;;18.13;11.27;;;;;;;;;;4936798;28;20798;-68
2022/01/12 08:51:24;;;;;;;17.03;10.87;;;;;;;;;;4938103;28;20771;-66
2022/01/12 08:53:50;;;;;;;14.67;10.57;;;;;;;;;;4919512;28;20223;-67
2022/01/12 08:56:16;;;;;;;17.23;10.93;;;;;;;;;;4933723;28;20259;-66
2022/01/12 08:58:42;;;;;;;17.37;11.17;;;;;;;;;;4947100;28;20809;-67
2022/01/12 09:01:10;;;;;;;16.17;11.23;;;;;;;;;;4923613;28;20712;-67
2022/01/12 09:03:36;;;;;;;15.03;10.77;;;;;;;;;;4920390;28;20745;-67
2022/01/12 09:06:03;;;;;;;14.63;10.97;;;;;;;;;;4918596;28;20713;-66
2022/01/12 09:08:29;;;;;;;15.17;10.97;;;;;;;;;;4933271;28;20245;-66
2022/01/12 09:10:55;;;;;;;14.63;10.27;;;;;;;;;;4922736;28;20287;-68
2022/01/12 09:13:21;;;;;;;14.23;10.37;;;;;;;;;;4927666;28;20254;-66
2022/01/12 09:15:47;;;;;;;17.70;11.63;;;;;;;;;;4943045;28;20712;-66
2022/01/12 09:18:13;;;;;;;14.07;10.13;;;;;;;;;;4930782;28;20250;-67
2022/01/12 09:20:39;;;;;;;16.10;11.03;;;;;;;;;;4922204;28;20234;-67
2022/01/12 09:23:05;;;;;;;15.33;10.43;;;;;;;;;;4931671;28;20400;-67
2022/01/12 09:25:35;;;;;;;13.97;10.33;;;;;;;;;;4944266;28;21078;-67
2022/01/12 09:28:02;;;;;;;15.27;10.73;;;;;;;;;;4931814;28;20924;-66
2022/01/12 09:30:28;;;;;;;12.73;10.23;;;;;;;;;;4941775;28;20250;-67
2022/01/12 09:32:54;;;;;;;16.97;11.30;;;;;;;;;;4942084;28;20751;-66
2022/01/12 09:35:20;;;;;;;14.67;11.47;;;;;;;;;;4916868;28;23316;-67
2022/01/12 09:37:46;;;;;;;14.00;11.40;;;;;;;;;;4923688;28;20720;-68
2022/01/12 09:40:12;;;;;;;17.77;10.83;;;;;;;;;;4939894;28;20242;-66
2022/01/12 09:42:38;;;;;;;14.13;10.90;;;;;;;;;;4924899;28;20237;-67
2022/01/12 09:45:06;;;;;;;15.13;10.27;;;;;;;;;;4935861;28;20238;-66
2022/01/12 09:47:32;;;;;;;14.20;10.57;;;;;;;;;;4934961;28;20245;-66
2022/01/12 09:49:58;;;;;;;19.13;10.60;;;;;;;;;;4923502;28;21006;-67
2022/01/12 09:52:24;;;;;;;14.33;10.63;;;;;;;;;;4926887;28;20253;-67
2022/01/12 09:54:50;;;;;;;13.77;10.47;;;;;;;;;;4924764;28;20611;-67
2022/01/12 09:57:16;;;;;;;13.47;10.90;;;;;;;;;;4905400;28;20548;-67
2022/01/12 09:59:42;;;;;;;14.00;10.33;;;;;;;;;;4941182;28;20564;-67
2022/01/12 10:02:14;;;;;;;14.47;10.93;;;;;;;;;;4935433;28;20265;-66
2022/01/12 10:04:40;;;;;;;13.37;10.50;;;;;;;;;;4910242;28;20706;-66
2022/01/12 10:07:06;;;;;;;13.63;10.67;;;;;;;;;;4934939;28;20239;-65
2022/01/12 10:09:34;;;;;;;15.00;10.87;;;;;;;;;;4937370;28;20737;-66
2022/01/12 10:12:07;;;;;;;14.03;10.20;;;;;;;;;;4913811;28;20247;-67
2022/01/12 10:14:40;;;;;;;15.07;10.73;;;;;;;;;;4916330;28;20592;-66
2022/01/12 10:17:06;;;;;;;11.77;10.00;;;;;;;;;;4927573;28;20235;-67
2022/01/12 10:19:33;;;;;;;13.77;9.90;;;;;;;;;;4932799;28;20219;-65
2022/01/12 10:21:59;;;;;;;12.33;9.90;;;;;;;;;;4914860;28;20792;-66
2022/01/12 10:24:25;;;;;;;13.93;9.90;;;;;;;;;;4923506;28;20346;-66
2022/01/12 10:26:52;;;;;;;12.30;10.47;;;;;;;;;;4946800;28;20388;-66
2022/01/12 10:29:22;;;;;;;14.07;10.77;;;;;;;;;;4894600;28;20244;-67
2022/01/12 10:31:54;;;;;;;15.07;10.53;;;;;;;;;;4938858;28;20619;-66
2022/01/12 10:34:21;;;;;;;15.00;11.27;;;;;;;;;;4935101;28;20234;-68
2022/01/12 10:36:47;;;;;;;13.50;10.70;;;;;;;;;;4920585;28;20631;-66
2022/01/12 10:39:13;;;;;;;16.17;10.53;;;;;;;;;;4916119;28;20246;-66
2022/01/12 10:41:58;;;;;;;12.67;9.93;;;;;;;;;;4927493;28;20233;-66
2022/01/12 10:44:25;;;;;;;16.43;11.13;;;;;;;;;;4929461;28;20285;-66
2022/01/12 10:46:51;;;;;;;19.10;11.60;;;;;;;;;;4920984;28;20345;-66
2022/01/12 10:49:21;;;;;;;16.20;11.83;;;;;;;;;;4905942;28;20308;-67
2022/01/12 10:51:56;;;;;;;16.33;10.90;;;;;;;;;;4933565;28;20247;-67
2022/01/12 10:54:22;;;;;;;18.23;11.67;;;;;;;;;;4925353;28;20231;-66
2022/01/12 10:56:48;;;;;;;19.10;11.57;;;;;;;;;;4937556;28;20215;-67
2022/01/12 10:59:17;;;;;;;19.03;11.50;;;;;;;;;;4909593;28;20231;-65
2022/01/12 11:01:43;;;;;;;19.40;12.00;;;;;;;;;;4937142;28;20330;-66
2022/01/12 11:04:10;;;;;;;20.67;12.87;;;;;;;;;;4943814;28;20234;-67
2022/01/12 11:06:36;;;;;;;26.97;13.60;;;;;;;;;;4923859;28;20226;-67
2022/01/12 11:09:02;;;;;;;23.07;13.00;;;;;;;;;;4939007;28;20241;-66
2022/01/12 11:11:29;;;;;;;24.73;13.40;;;;;;;;;;4937127;28;20353;-67
2022/01/12 11:13:55;;;;;;;29.03;13.83;;;;;;;;;;4940983;28;20870;-68
2022/01/12 11:16:24;;;;;;;26.57;14.83;;;;;;;;;;4926950;28;20378;-67
2022/01/12 11:18:52;;;;;;;28.07;14.77;;;;;;;;;;4940146;28;20238;-65
2022/01/12 11:21:21;;;;;;;29.77;14.13;;;;;;;;;;4945449;28;20798;-66
2022/01/12 11:23:47;;;;;;;29.80;15.40;;;;;;;;;;4937575;28;21173;-67
2022/01/12 11:26:20;;;;;;;29.20;15.40;;;;;;;;;;4932901;28;20237;-65
2022/01/12 11:28:47;;;;;;;34.30;15.97;;;;;;;;;;4942246;28;20268;-66
2022/01/12 11:31:15;;;;;;;31.37;16.17;;;;;;;;;;4912797;28;20546;-65
2022/01/12 11:33:42;;;;;;;37.23;16.10;;;;;;;;;;4940345;28;20230;-66
2022/01/12 11:36:14;;;;;;;36.67;17.03;;;;;;;;;;4926375;28;20434;-67
2022/01/12 11:38:40;;;;;;;40.00;17.20;;;;;;;;;;4946163;28;20238;-65
2022/01/12 11:41:10;;;;;;;38.20;17.00;;;;;;;;;;4939399;28;20285;-66
2022/01/12 11:43:43;;;;;;;39.23;17.30;;;;;;;;;;4943232;28;20256;-66
2022/01/12 11:46:10;;;;;;;37.00;16.30;;;;;;;;;;4924259;28;20949;-66
2022/01/12 11:48:56;;;;;;;34.73;16.80;;;;;;;;;;4922503;28;20243;-67
2022/01/12 11:51:38;;;;;;;33.83;16.70;;;;;;;;;;4951882;28;20657;-67
2022/01/12 11:54:08;;;;;;;43.40;18.50;;;;;;;;;;4944304;28;20227;-67
2022/01/12 11:56:34;;;;;;;43.90;18.07;;;;;;;;;;4902266;28;20318;-66
2022/01/12 11:59:05;;;;;;;43.00;19.53;;;;;;;;;;4907822;28;20684;-66
2022/01/12 12:01:38;;;;;;;42.07;19.27;;;;;;;;;;4920870;28;20258;-67
2022/01/12 12:04:05;;;;;;;42.30;19.77;;;;;;;;;;4923919;28;20651;-66
2022/01/12 12:06:31;;;;;;;40.93;18.53;;;;;;;;;;4923504;28;20365;-67
2022/01/12 12:08:58;;;;;;;39.73;19.30;;;;;;;;;;4910095;28;20301;-66
2022/01/12 12:11:28;;;;;;;44.67;19.53;;;;;;;;;;4919571;28;20700;-66
2022/01/12 12:13:54;;;;;;;50.30;20.07;;;;;;;;;;4906397;28;20270;-67
2022/01/12 12:16:20;;;;;;;42.73;19.70;;;;;;;;;;4926161;28;20249;-66
2022/01/12 12:18:46;;;;;;;47.57;20.73;;;;;;;;;;4936048;28;20256;-66
2022/01/12 12:21:12;;;;;;;47.37;21.10;;;;;;;;;;4924431;28;20273;-66
2022/01/12 12:23:38;;;;;;;43.33;21.43;;;;;;;;;;4901951;28;20330;-66
2022/01/12 12:26:11;;;;;;;46.17;22.17;;;;;;;;;;4918502;28;20977;-67
2022/01/12 12:28:36;;;;;;;44.50;21.17;;;;;;;;;;4941045;28;20793;-66
2022/01/12 12:31:02;;;;;;;48.40;23.10;;;;;;;;;;4939154;28;20285;-67
2022/01/12 12:33:28;;;;;;;51.83;23.50;;;;;;;;;;4934171;28;20259;-67
2022/01/12 12:35:54;;;;;;;51.07;22.87;;;;;;;;;;4915995;28;20238;-67
2022/01/12 12:38:20;;;;;;;52.20;23.77;;;;;;;;;;4921564;28;20241;-67
2022/01/12 12:40:47;;;;;;;53.97;23.70;;;;;;;;;;4937203;28;20243;-67
2022/01/12 12:43:18;;;;;;;47.13;23.33;;;;;;;;;;4914009;28;20860;-66
2022/01/12 12:45:45;;;;;;;54.90;24.07;;;;;;;;;;4913822;28;20268;-66
2022/01/12 12:48:12;;;;;;;51.77;23.57;;;;;;;;;;4919174;28;20262;-68
2022/01/12 12:50:39;;;;;;;58.73;26.67;;;;;;;;;;4923327;28;20224;-67
2022/01/12 12:53:05;;;;;;;52.23;26.03;;;;;;;;;;4927549;28;20313;-66
2022/01/12 12:55:38;;;;;;;58.80;26.70;;;;;;;;;;4935461;28;20230;-67
2022/01/12 12:58:04;;;;;;;56.53;26.50;;;;;;;;;;4921808;28;20334;-67
2022/01/12 13:00:30;;;;;;;54.93;26.57;;;;;;;;;;4936038;28;20335;-66
2022/01/12 13:02:56;;;;;;;62.87;27.73;;;;;;;;;;4923096;28;20299;-66
2022/01/12 13:05:23;;;;;;;59.77;28.57;;;;;;;;;;4935910;28;20231;-67
2022/01/12 13:07:49;;;;;;;59.13;27.47;;;;;;;;;;4922050;28;20238;-66
2022/01/12 13:10:19;;;;;;;64.27;28.97;;;;;;;;;;4933876;28;20842;-66
2022/01/12 13:12:49;;;;;;;61.33;28.77;;;;;;;;;;4919866;28;20325;-67
2022/01/12 13:15:25;;;;;;;61.90;28.10;;;;;;;;;;4934339;28;20255;-66
2022/01/12 13:17:58;;;;;;;63.27;28.60;;;;;;;;;;4913708;28;20250;-66
2022/01/12 13:23:01;;;;;;;66.60;29.23;;;;;;;;;;4921912;28;20245;-68
2022/01/12 13:25:27;;;;;;;68.43;29.57;;;;;;;;;;4934827;28;20306;-67
2022/01/12 13:27:53;;;;;;;60.17;29.23;;;;;;;;;;4898995;28;20961;-67
2022/01/12 13:30:23;;;;;;;63.33;29.27;;;;;;;;;;4933607;28;22151;-67
2022/01/12 13:32:52;;;;;;;68.67;30.53;;;;;;;;;;4946641;28;20234;-67
2022/01/12 13:35:19;;;;;;;68.43;30.37;;;;;;;;;;4939835;28;20237;-66
2022/01/12 13:37:44;;;;;;;66.30;29.27;;;;;;;;;;4927091;28;20250;-67
2022/01/12 13:40:11;;;;;;;57.00;28.93;;;;;;;;;;4939672;28;20222;-68
2022/01/12 13:42:50;;;;;;;59.37;28.17;;;;;;;;;;4934755;28;20246;-67
2022/01/12 13:45:18;;;;;;;60.27;28.23;;;;;;;;;;4931569;28;20277;-66
2022/01/12 13:47:50;;;;;;;57.90;27.17;;;;;;;;;;4926985;28;20308;-66
2022/01/12 13:50:17;;;;;;;67.70;29.33;;;;;;;;;;4907806;28;20281;-66
2022/01/12 13:52:53;;;;;;;60.43;29.37;;;;;;;;;;4918524;28;20349;-66
2022/01/12 13:55:19;;;;;;;56.77;27.40;;;;;;;;;;4941257;28;20234;-66
2022/01/12 13:57:45;;;;;;;62.70;27.93;;;;;;;;;;4923349;28;20329;-67
2022/01/12 14:00:19;;;;;;;59.10;26.70;;;;;;;;;;4942530;28;20231;-66
2022/01/12 14:02:45;;;;;;;56.13;27.37;;;;;;;;;;4918245;28;20241;-66
2022/01/12 14:05:17;;;;;;;57.87;27.27;;;;;;;;;;4943315;28;20234;-67
2022/01/12 14:07:58;;;;;;;63.07;28.73;;;;;;;;;;4938437;28;20231;-66
2022/01/12 14:10:24;;;;;;;57.33;27.20;;;;;;;;;;4953926;28;20740;-67
2022/01/12 14:12:50;;;;;;;54.87;27.10;;;;;;;;;;4929482;28;20258;-67
2022/01/12 14:15:20;;;;;;;54.57;26.80;;;;;;;;;;4932838;28;20315;-67
2022/01/12 14:17:48;;;;;;;58.67;25.77;;;;;;;;;;4921134;28;20253;-67
2022/01/12 14:20:23;;;;;;;50.60;25.33;;;;;;;;;;4948842;28;20236;-67
2022/01/12 14:23:01;;;;;;;63.37;27.77;;;;;;;;;;4911695;28;20864;-67
2022/01/12 14:25:55;;;;;;;59.50;28.00;;;;;;;;;;4950889;28;20234;-66
2022/01/12 14:28:28;;;;;;;57.90;27.70;;;;;;;;;;4921560;28;20246;-66
2022/01/12 14:30:54;;;;;;;58.73;26.60;;;;;;;;;;4944329;28;20300;-66
2022/01/12 14:33:20;;;;;;;56.87;27.23;;;;;;;;;;4946947;28;20840;-66
2022/01/12 14:35:46;;;;;;;52.83;26.10;;;;;;;;;;4943918;28;20866;-66
2022/01/12 14:38:12;;;;;;;52.13;26.17;;;;;;;;;;4936894;28;20238;-66
2022/01/12 14:40:38;;;;;;;58.13;26.47;;;;;;;;;;4926547;28;20789;-66
2022/01/12 14:43:07;;;;;;;58.13;25.27;;;;;;;;;;4913571;28;21973;-66
2022/01/12 14:45:34;;;;;;;58.40;24.90;;;;;;;;;;4935263;28;20262;-66
2022/01/12 14:48:01;;;;;;;52.50;25.93;;;;;;;;;;4940675;28;20246;-66
2022/01/12 14:50:27;;;;;;;53.37;27.13;;;;;;;;;;4931874;28;20238;-66
2022/01/12 14:52:54;;;;;;;55.13;26.43;;;;;;;;;;4934082;28;20242;-67
2022/01/12 14:55:20;;;;;;;55.47;25.50;;;;;;;;;;4927612;28;20413;-67
2022/01/12 14:57:46;;;;;;;59.03;26.27;;;;;;;;;;4913070;28;21477;-68
2022/01/12 15:00:16;;;;;;;57.33;26.23;;;;;;;;;;4919988;28;20430;-67
2022/01/12 15:02:43;;;;;;;53.07;26.30;;;;;;;;;;4937118;28;20615;-67
2022/01/12 15:05:09;;;;;;;55.77;25.03;;;;;;;;;;4930226;28;20227;-67
2022/01/12 15:07:35;;;;;;;60.60;27.20;;;;;;;;;;4922100;28;20383;-67
2022/01/12 15:10:02;;;;;;;53.93;26.47;;;;;;;;;;4939141;28;20235;-67
2022/01/12 15:12:36;;;;;;;57.77;26.50;;;;;;;;;;4912758;28;20806;-67
2022/01/12 15:15:02;;;;;;;57.73;26.07;;;;;;;;;;4916935;28;20234;-65
2022/01/12 15:17:30;;;;;;;55.43;25.30;;;;;;;;;;4926673;28;20231;-67
2022/01/12 15:19:56;;;;;;;56.30;24.67;;;;;;;;;;4910034;28;20456;-67
2022/01/12 15:22:22;;;;;;;56.07;25.17;;;;;;;;;;4930855;28;20321;-67
2022/01/12 15:24:48;;;;;;;64.50;26.57;;;;;;;;;;4906339;28;20905;-67
2022/01/12 15:27:15;;;;;;;58.47;26.20;;;;;;;;;;4931626;28;20266;-67
2022/01/12 15:29:41;;;;;;;56.47;27.23;;;;;;;;;;4938674;28;24135;-68
2022/01/12 15:32:07;;;;;;;57.00;26.43;;;;;;;;;;4916091;28;20260;-67
2022/01/12 15:34:33;;;;;;;54.37;26.93;;;;;;;;;;4908020;28;21845;-67
2022/01/12 15:36:59;;;;;;;57.50;26.93;;;;;;;;;;4920463;28;20246;-67
2022/01/12 15:39:25;;;;;;;57.73;26.20;;;;;;;;;;4927247;28;20250;-67
2022/01/12 15:41:51;;;;;;;55.00;26.03;;;;;;;;;;4924357;28;20514;-66